Time;durP1;ratioP1;P1;durP2;ratioP2;P2;SDS_P1;SDS_P2;PMS_P1;PMS_P2;Temp;Humidity;BMP_temperature;BMP_pressure;BME280_temperature;BME280_humidity;BME280_pressure;Samples;Min_cycle;Max_cycle;Signal;HPM_P1;HPM_P2
2022/05/28 00:00:59;;;;;;;4.32;0.95;;;13.00;74.50;;;;;;2090943;28;20032;-92
2022/05/28 00:02:18;;;;;;;3.00;0.90;;;13.00;74.50;;;;;;2088087;28;20025;-92
2022/05/28 00:03:38;;;;;;;3.15;0.60;;;13.00;74.60;;;;;;2089098;28;20496;-91
2022/05/28 00:04:57;;;;;;;3.60;0.75;;;13.00;74.60;;;;;;2088849;28;20028;-91
2022/05/28 00:06:19;;;;;;;4.10;0.80;;;13.00;74.70;;;;;;2083217;28;20033;-92
2022/05/28 00:07:39;;;;;;;4.60;0.95;;;13.00;74.80;;;;;;2099307;28;20028;-93
2022/05/28 00:09:00;;;;;;;4.05;0.90;;;12.90;74.80;;;;;;2083793;28;20025;-92
2022/05/28 00:10:20;;;;;;;3.15;1.00;;;12.90;74.90;;;;;;2084898;28;20033;-93
2022/05/28 00:11:41;;;;;;;3.83;0.80;;;12.90;74.90;;;;;;2085456;28;20068;-93
2022/05/28 00:13:01;;;;;;;3.67;1.13;;;12.90;74.90;;;;;;2097741;28;20028;-91
2022/05/28 00:14:20;;;;;;;2.90;0.80;;;12.90;75.10;;;;;;2090273;28;20048;-92
2022/05/28 00:15:41;;;;;;;2.90;0.70;;;12.90;75.10;;;;;;2081209;28;20618;-92
2022/05/28 00:17:01;;;;;;;4.40;1.00;;;12.80;75.20;;;;;;2092711;28;20063;-91
2022/05/28 00:18:20;;;;;;;3.53;0.70;;;12.90;75.30;;;;;;2089115;28;20037;-92
2022/05/28 00:19:39;;;;;;;6.15;1.17;;;12.90;75.40;;;;;;2085698;28;20064;-92
2022/05/28 00:20:59;;;;;;;4.30;1.00;;;12.80;75.40;;;;;;2078377;28;20026;-91
2022/05/28 00:22:18;;;;;;;5.75;1.25;;;12.80;75.50;;;;;;2085862;28;20121;-91
2022/05/28 00:23:38;;;;;;;4.28;0.98;;;12.80;75.60;;;;;;2098119;28;20032;-91
2022/05/28 00:24:58;;;;;;;3.80;1.10;;;12.80;75.60;;;;;;2094448;28;20048;-92
2022/05/28 00:26:17;;;;;;;4.50;1.15;;;12.80;75.70;;;;;;2089089;28;20028;-93
2022/05/28 00:27:38;;;;;;;3.25;0.68;;;12.80;75.80;;;;;;2086721;28;20111;-91
2022/05/28 00:28:57;;;;;;;4.15;0.85;;;12.70;75.80;;;;;;2096017;28;20021;-92
2022/05/28 00:30:17;;;;;;;4.70;1.10;;;12.70;75.80;;;;;;2077979;28;20033;-91
2022/05/28 00:31:37;;;;;;;2.63;0.77;;;12.80;75.90;;;;;;2085446;28;20025;-91
2022/05/28 00:32:57;;;;;;;4.72;0.88;;;12.70;76.00;;;;;;2085603;28;20029;-92
2022/05/28 00:34:16;;;;;;;3.88;0.90;;;12.70;76.00;;;;;;2080268;28;20042;-93
2022/05/28 00:35:36;;;;;;;2.30;0.80;;;12.70;76.10;;;;;;2075730;28;20041;-92
2022/05/28 00:36:55;;;;;;;3.88;0.80;;;12.70;76.20;;;;;;2077138;28;20053;-93
2022/05/28 00:38:15;;;;;;;2.78;0.90;;;12.70;76.20;;;;;;2077617;28;20037;-92
2022/05/28 00:39:34;;;;;;;5.20;1.00;;;12.70;76.20;;;;;;2082630;28;20034;-92
2022/05/28 00:40:57;;;;;;;3.45;0.90;;;12.70;76.30;;;;;;2086114;28;20112;-92
2022/05/28 00:42:17;;;;;;;4.03;0.68;;;12.70;76.40;;;;;;2095979;28;20032;-92
2022/05/28 00:43:39;;;;;;;3.28;0.70;;;12.70;76.40;;;;;;2099082;28;20036;-92
2022/05/28 00:44:58;;;;;;;3.85;0.85;;;12.70;76.50;;;;;;2098331;28;20461;-92
2022/05/28 00:46:22;;;;;;;2.70;0.90;;;12.70;76.60;;;;;;2090027;28;20100;-92
2022/05/28 00:47:47;;;;;;;3.40;0.80;;;12.70;76.60;;;;;;2102464;28;20036;-92
2022/05/28 00:49:09;;;;;;;4.22;0.85;;;12.60;76.70;;;;;;2099690;28;20111;-92
2022/05/28 00:50:29;;;;;;;4.85;1.25;;;12.60;76.70;;;;;;2103083;28;20024;-92
2022/05/28 00:51:52;;;;;;;2.63;0.75;;;12.60;76.80;;;;;;2091828;28;20029;-92
2022/05/28 00:53:11;;;;;;;5.15;1.10;;;12.60;76.90;;;;;;2089459;28;20497;-93
2022/05/28 00:54:41;;;;;;;3.22;0.90;;;12.50;76.90;;;;;;2086796;28;20033;-93
2022/05/28 00:56:03;;;;;;;4.53;0.93;;;12.60;77.00;;;;;;2095861;28;20060;-93
2022/05/28 00:57:24;;;;;;;3.55;0.80;;;12.60;77.00;;;;;;2096535;28;20036;-93
2022/05/28 00:58:43;;;;;;;4.15;1.10;;;12.60;77.10;;;;;;2088264;28;20105;-91
2022/05/28 01:00:04;;;;;;;3.72;0.88;;;12.50;77.10;;;;;;2078678;28;20049;-93
2022/05/28 01:01:26;;;;;;;4.10;0.90;;;12.50;77.20;;;;;;2083965;28;20032;-92
2022/05/28 01:02:51;;;;;;;4.97;1.05;;;12.50;77.30;;;;;;2098030;28;20025;-93
2022/05/28 01:04:28;;;;;;;3.72;0.93;;;12.50;77.40;;;;;;2095959;28;20060;-92
2022/05/28 01:05:56;;;;;;;2.85;0.88;;;12.50;77.40;;;;;;2098708;28;20191;-93
2022/05/28 01:07:50;;;;;;;6.38;1.20;;;12.50;77.40;;;;;;2096226;28;20032;-93
2022/05/28 01:09:23;;;;;;;3.10;0.73;;;12.50;77.50;;;;;;2098076;28;20032;-93
2022/05/28 01:10:59;;;;;;;3.80;0.80;;;12.40;77.50;;;;;;2097963;28;20697;-92
2022/05/28 01:12:29;;;;;;;3.08;0.63;;;12.50;77.60;;;;;;2096492;28;20033;-93
2022/05/28 01:13:55;;;;;;;5.28;1.10;;;12.40;77.60;;;;;;2094813;28;20032;-92
2022/05/28 01:15:23;;;;;;;3.00;0.77;;;12.40;77.70;;;;;;2096180;28;20024;-92
2022/05/28 01:16:57;;;;;;;3.55;0.80;;;12.40;77.80;;;;;;2097394;28;20044;-92
2022/05/28 01:18:25;;;;;;;3.85;0.80;;;12.40;77.90;;;;;;2092978;28;20029;-93
2022/05/28 01:20:01;;;;;;;4.38;1.00;;;12.40;77.90;;;;;;2089611;28;20037;-92
2022/05/28 01:21:44;;;;;;;2.25;0.70;;;12.40;78.00;;;;;;2092975;28;20477;-92
2022/05/28 01:23:22;;;;;;;3.67;0.80;;;12.30;78.00;;;;;;2091384;28;20033;-93
2022/05/28 01:25:15;;;;;;;5.00;0.80;;;12.40;78.10;;;;;;2098609;28;20254;-92
2022/05/28 01:26:55;;;;;;;3.03;0.85;;;12.30;78.10;;;;;;2092432;28;20500;-92
2022/05/28 01:28:19;;;;;;;1.95;0.68;;;12.30;78.10;;;;;;2097350;28;20040;-92
2022/05/28 01:29:43;;;;;;;4.68;0.90;;;12.30;78.10;;;;;;2095040;28;20420;-93
2022/05/28 01:31:05;;;;;;;3.72;0.80;;;12.30;78.30;;;;;;2090920;28;20029;-93
2022/05/28 01:32:26;;;;;;;2.78;0.80;;;12.30;78.40;;;;;;2094718;28;20044;-93
2022/05/28 01:33:46;;;;;;;2.85;0.82;;;12.30;78.40;;;;;;2094224;28;20037;-93
2022/05/28 01:35:10;;;;;;;3.28;0.88;;;12.30;78.50;;;;;;2095584;28;21727;-92
2022/05/28 01:36:30;;;;;;;3.75;0.80;;;12.30;78.70;;;;;;2095621;28;20033;-92
2022/05/28 01:37:51;;;;;;;2.90;0.90;;;12.30;78.70;;;;;;2088275;28;20033;-91
2022/05/28 01:39:12;;;;;;;4.63;1.10;;;12.30;78.80;;;;;;2086362;28;20021;-92
2022/05/28 01:40:32;;;;;;;;;;;12.30;78.90;;;;;;2095247;28;20029;-91
2022/05/28 01:41:53;;;;;;;2.83;0.70;;;12.30;78.80;;;;;;2087633;28;19913;-92
2022/05/28 01:43:16;;;;;;;3.85;0.80;;;12.20;78.80;;;;;;2095049;28;20032;-93
2022/05/28 01:44:41;;;;;;;3.50;0.90;;;12.20;78.90;;;;;;2094698;28;20029;-93
2022/05/28 01:46:00;;;;;;;3.65;0.90;;;12.20;79.10;;;;;;2096348;28;20036;-92
2022/05/28 01:47:20;;;;;;;6.07;0.93;;;12.20;79.20;;;;;;2089757;28;20037;-93
2022/05/28 01:48:43;;;;;;;2.70;0.63;;;12.20;79.30;;;;;;2095594;28;20068;-93
2022/05/28 01:50:05;;;;;;;4.88;0.90;;;12.20;79.40;;;;;;2093705;28;20033;-91
2022/05/28 01:51:32;;;;;;;2.92;0.80;;;12.20;79.50;;;;;;2096685;28;20119;-94
2022/05/28 01:52:53;;;;;;;2.40;0.80;;;12.20;79.60;;;;;;2099435;28;20028;-92
2022/05/28 01:54:16;;;;;;;5.15;1.08;;;12.20;79.70;;;;;;2086839;28;20033;-92
2022/05/28 01:55:40;;;;;;;5.60;1.00;;;12.20;79.80;;;;;;2100555;28;20044;-93
2022/05/28 01:57:00;;;;;;;4.07;1.25;;;12.20;80.50;;;;;;2098187;28;20469;-93
2022/05/28 01:58:19;;;;;;;5.25;0.93;;;12.20;79.90;;;;;;2089546;28;20021;-92
2022/05/28 01:59:39;;;;;;;4.45;0.90;;;12.20;79.90;;;;;;2082641;28;20028;-92
2022/05/28 02:01:00;;;;;;;4.60;0.90;;;12.20;80.00;;;;;;2086777;28;20025;-92
2022/05/28 02:02:20;;;;;;;3.65;0.80;;;12.20;80.00;;;;;;2090430;28;20119;-92
2022/05/28 02:03:42;;;;;;;3.83;0.93;;;12.20;80.10;;;;;;2095109;28;20025;-92
2022/05/28 02:05:02;;;;;;;5.35;1.05;;;12.20;80.30;;;;;;2093191;28;20020;-92
2022/05/28 02:06:21;;;;;;;3.08;0.80;;;12.20;80.30;;;;;;2095686;28;20036;-91
2022/05/28 02:07:41;;;;;;;5.28;0.70;;;12.20;80.40;;;;;;2087662;28;20029;-94
2022/05/28 02:09:03;;;;;;;4.35;0.82;;;12.20;80.60;;;;;;2090859;28;20029;-91
2022/05/28 02:10:23;;;;;;;2.97;0.80;;;12.20;80.70;;;;;;2103491;28;20112;-92
2022/05/28 02:11:57;;;;;;;5.03;1.00;;;12.20;80.70;;;;;;2086712;28;20071;-93
2022/05/28 02:13:33;;;;;;;3.33;0.70;;;12.10;80.70;;;;;;2098387;28;20508;-92
2022/05/28 02:15:11;;;;;;;3.35;0.77;;;12.20;80.80;;;;;;2095924;28;20568;-93
2022/05/28 02:16:54;;;;;;;2.88;0.70;;;12.20;80.90;;;;;;2096219;28;20060;-92
2022/05/28 02:18:18;;;;;;;1.83;0.70;;;12.10;80.90;;;;;;2095185;28;20044;-92
2022/05/28 02:20:04;;;;;;;4.40;0.93;;;12.10;80.90;;;;;;2097860;28;20024;-93
2022/05/28 02:21:48;;;;;;;3.38;0.70;;;12.10;81.10;;;;;;2096210;28;20024;-92
2022/05/28 02:23:25;;;;;;;2.55;0.73;;;12.10;81.10;;;;;;2096505;28;20029;-93
2022/05/28 02:24:54;;;;;;;3.30;0.73;;;12.10;81.20;;;;;;2094756;28;20037;-92
2022/05/28 02:26:43;;;;;;;4.15;0.95;;;12.10;81.30;;;;;;2096702;28;20028;-92
2022/05/28 02:28:05;;;;;;;2.78;0.90;;;12.10;81.40;;;;;;2092693;28;20021;-91
2022/05/28 02:29:25;;;;;;;4.10;0.95;;;12.00;81.40;;;;;;2093031;28;20044;-91
2022/05/28 02:30:53;;;;;;;2.55;0.80;;;12.00;81.50;;;;;;2086997;28;20120;-92
2022/05/28 02:32:18;;;;;;;3.80;0.82;;;12.00;81.70;;;;;;2094222;28;20044;-92
2022/05/28 02:33:38;;;;;;;3.47;0.77;;;12.00;81.80;;;;;;2093541;28;20032;-94
2022/05/28 02:34:57;;;;;;;3.55;0.68;;;12.00;81.90;;;;;;2088554;28;20041;-92
2022/05/28 02:36:18;;;;;;;4.70;1.20;;;12.00;82.00;;;;;;2081017;28;20025;-95
2022/05/28 02:37:37;;;;;;;;;;;12.00;82.70;;;;;;2081373;28;20037;-93
2022/05/28 02:38:57;;;;;;;3.55;1.15;;;12.00;81.90;;;;;;2082847;28;19912;-92
2022/05/28 02:40:16;;;;;;;2.97;0.82;;;12.00;82.00;;;;;;2075961;28;20482;-92
2022/05/28 02:41:36;;;;;;;4.80;1.00;;;11.90;82.00;;;;;;2072745;28;20121;-93
2022/05/28 02:42:55;;;;;;;4.00;0.70;;;11.90;82.20;;;;;;2090992;28;20032;-92
2022/05/28 02:44:14;;;;;;;4.47;0.82;;;11.90;82.40;;;;;;2089679;28;20049;-91
2022/05/28 02:45:33;;;;;;;4.10;1.08;;;11.90;82.50;;;;;;2077633;28;20490;-92
2022/05/28 02:46:52;;;;;;;2.65;0.80;;;11.90;83.20;;;;;;2081409;28;20036;-92
2022/05/28 02:48:12;;;;;;;3.13;0.65;;;11.90;82.70;;;;;;2086677;28;20044;-92
2022/05/28 02:49:31;;;;;;;3.40;0.70;;;11.90;82.70;;;;;;2083315;28;20041;-92
2022/05/28 02:50:51;;;;;;;5.45;1.00;;;11.90;82.80;;;;;;2093008;28;20032;-93
2022/05/28 02:52:10;;;;;;;3.95;1.00;;;11.90;82.90;;;;;;2078216;28;20430;-93
2022/05/28 02:53:29;;;;;;;3.70;0.88;;;11.80;83.00;;;;;;2089267;28;20028;-92
2022/05/28 02:54:49;;;;;;;4.80;0.90;;;11.90;83.10;;;;;;2083111;28;20029;-92
2022/05/28 02:56:09;;;;;;;2.30;0.68;;;11.80;83.10;;;;;;2086859;28;20033;-92
2022/05/28 02:57:29;;;;;;;3.55;0.80;;;11.90;83.20;;;;;;2092504;28;20032;-92
2022/05/28 02:58:48;;;;;;;6.28;1.00;;;11.80;83.20;;;;;;2086295;28;20032;-92
2022/05/28 03:00:08;;;;;;;3.55;0.80;;;11.80;83.30;;;;;;2084604;28;20029;-92
2022/05/28 03:01:32;;;;;;;2.67;0.60;;;11.80;83.40;;;;;;2079293;28;20033;-92
2022/05/28 03:02:52;;;;;;;3.38;0.80;;;11.80;83.50;;;;;;2098007;28;20480;-92
2022/05/28 03:04:12;;;;;;;3.22;0.90;;;11.80;83.60;;;;;;2100945;28;20571;-93
2022/05/28 03:05:31;;;;;;;4.78;0.85;;;11.80;83.60;;;;;;2080675;28;20037;-92
2022/05/28 03:06:52;;;;;;;3.25;0.80;;;11.80;83.80;;;;;;2088610;28;20033;-93
2022/05/28 03:08:11;;;;;;;5.25;1.00;;;11.80;83.80;;;;;;2087001;28;20029;-92
2022/05/28 03:09:30;;;;;;;3.92;0.88;;;11.80;83.80;;;;;;2082146;28;20042;-93
2022/05/28 03:10:49;;;;;;;3.70;1.10;;;11.70;83.80;;;;;;2083238;28;20045;-92
2022/05/28 03:12:09;;;;;;;4.13;0.90;;;11.70;83.90;;;;;;2083158;28;20057;-93
2022/05/28 03:13:28;;;;;;;5.20;1.00;;;11.70;84.00;;;;;;2087319;28;20040;-93
2022/05/28 03:14:48;;;;;;;3.30;0.80;;;11.70;84.00;;;;;;2089287;28;20416;-93
2022/05/28 03:16:08;;;;;;;5.35;0.98;;;11.70;84.10;;;;;;2076042;28;20030;-93
2022/05/28 03:17:27;;;;;;;4.60;0.80;;;11.70;84.20;;;;;;2092090;28;20029;-93
2022/05/28 03:18:46;;;;;;;2.58;0.93;;;11.70;84.20;;;;;;2095263;28;20033;-92
2022/05/28 03:20:06;;;;;;;2.47;0.77;;;11.70;84.30;;;;;;2081316;28;20063;-93
2022/05/28 03:21:26;;;;;;;3.45;0.80;;;11.70;84.30;;;;;;2078522;28;20030;-94
2022/05/28 03:22:45;;;;;;;4.68;0.88;;;11.70;84.30;;;;;;2083866;28;20037;-92
2022/05/28 03:24:06;;;;;;;3.53;0.80;;;11.60;84.30;;;;;;2092444;28;20425;-92
2022/05/28 03:25:25;;;;;;;2.70;0.88;;;11.70;84.50;;;;;;2095060;28;20465;-93
2022/05/28 03:26:45;;;;;;;2.72;0.80;;;11.70;84.50;;;;;;2079538;28;20049;-92
2022/05/28 03:28:04;;;;;;;3.67;0.80;;;11.70;84.50;;;;;;2083586;28;20079;-93
2022/05/28 03:29:25;;;;;;;1.92;0.57;;;11.60;84.50;;;;;;2081718;28;20045;-92
2022/05/28 03:30:44;;;;;;;4.72;0.70;;;11.60;84.60;;;;;;2094461;28;20139;-93
2022/05/28 03:32:04;;;;;;;3.28;0.68;;;11.60;84.50;;;;;;2085961;28;20033;-92
2022/05/28 03:33:23;;;;;;;3.45;0.80;;;11.60;84.60;;;;;;2075675;28;20037;-93
2022/05/28 03:34:42;;;;;;;3.42;1.15;;;11.70;84.70;;;;;;2077989;28;20112;-92
2022/05/28 03:36:02;;;;;;;3.83;0.90;;;11.60;84.70;;;;;;2092025;28;20021;-93
2022/05/28 03:37:21;;;;;;;2.58;0.60;;;11.60;84.70;;;;;;2095003;28;20107;-93
2022/05/28 03:38:40;;;;;;;5.57;1.08;;;11.70;84.80;;;;;;2085976;28;20021;-92
2022/05/28 03:40:00;;;;;;;3.42;0.80;;;11.60;84.90;;;;;;2074965;28;20033;-93
2022/05/28 03:41:20;;;;;;;2.78;0.70;;;11.60;85.00;;;;;;2077955;28;20037;-93
2022/05/28 03:42:39;;;;;;;2.67;0.70;;;11.60;85.00;;;;;;2089006;28;20404;-92
2022/05/28 03:43:58;;;;;;;5.13;0.60;;;11.60;85.10;;;;;;2085894;28;20057;-93
2022/05/28 03:45:18;;;;;;;3.47;0.80;;;11.60;85.10;;;;;;2083636;28;20041;-93
2022/05/28 03:46:38;;;;;;;3.60;0.70;;;11.60;85.20;;;;;;2081255;28;20068;-94
2022/05/28 03:47:58;;;;;;;4.15;0.88;;;11.60;85.20;;;;;;2088717;28;20033;-93
2022/05/28 03:49:34;;;;;;;4.15;0.68;;;11.60;85.20;;;;;;2086664;28;20112;-93
2022/05/28 03:50:53;;;;;;;3.85;0.80;;;11.60;85.20;;;;;;2095876;28;20032;-92
2022/05/28 03:52:14;;;;;;;3.03;0.80;;;11.60;85.10;;;;;;2089395;28;20064;-93
2022/05/28 03:53:33;;;;;;;3.60;0.70;;;11.60;85.20;;;;;;2079942;28;20033;-93
2022/05/28 03:54:52;;;;;;;2.58;0.70;;;11.60;85.20;;;;;;2069426;28;20042;-92
2022/05/28 03:56:11;;;;;;;3.63;0.73;;;11.60;85.20;;;;;;2068524;28;20116;-93
2022/05/28 03:57:32;;;;;;;3.03;0.60;;;11.60;85.30;;;;;;2072219;28;20105;-92
2022/05/28 03:58:51;;;;;;;;;;;11.60;85.30;;;;;;2091329;28;20052;-93
2022/05/28 04:00:11;;;;;;;3.70;0.63;;;11.60;85.10;;;;;;2085863;28;19913;-93
2022/05/28 04:01:31;;;;;;;6.50;0.80;;;11.60;85.10;;;;;;2082836;28;20033;-93
2022/05/28 04:02:50;;;;;;;3.17;0.85;;;11.60;85.20;;;;;;2092765;28;20055;-93
2022/05/28 04:04:10;;;;;;;3.47;0.75;;;11.60;85.30;;;;;;2095406;28;20140;-93
2022/05/28 04:05:29;;;;;;;3.50;0.93;;;11.60;85.30;;;;;;2087286;28;20049;-93
2022/05/28 04:06:48;;;;;;;3.58;0.85;;;11.60;85.40;;;;;;2087083;28;20504;-92
2022/05/28 04:08:08;;;;;;;2.45;0.77;;;11.60;85.40;;;;;;2085337;28;20029;-93
2022/05/28 04:09:27;;;;;;;6.72;1.05;;;11.60;85.40;;;;;;2082695;28;20037;-93
2022/05/28 04:10:47;;;;;;;3.22;0.70;;;11.60;85.50;;;;;;2096413;28;20036;-93
2022/05/28 04:12:07;;;;;;;2.72;0.80;;;11.60;85.60;;;;;;2082763;28;20038;-93
2022/05/28 04:13:26;;;;;;;3.85;0.80;;;11.60;85.60;;;;;;2077024;28;20046;-93
2022/05/28 04:14:46;;;;;;;4.22;0.90;;;11.60;85.60;;;;;;2083755;28;20037;-93
2022/05/28 04:16:05;;;;;;;4.20;0.85;;;11.70;85.60;;;;;;2072877;28;20065;-93
2022/05/28 04:17:25;;;;;;;3.58;0.93;;;11.70;85.60;;;;;;2083081;28;20473;-93
2022/05/28 04:18:44;;;;;;;3.33;0.82;;;11.70;85.50;;;;;;2085727;28;20041;-93
2022/05/28 04:20:06;;;;;;;4.45;0.77;;;11.70;85.50;;;;;;2079376;28;20029;-93
2022/05/28 04:21:25;;;;;;;5.07;0.80;;;11.70;85.60;;;;;;2085383;28;20127;-91
2022/05/28 04:22:44;;;;;;;3.83;0.90;;;11.70;85.50;;;;;;2091573;28;20064;-93
2022/05/28 04:24:04;;;;;;;3.70;0.80;;;11.80;85.60;;;;;;2080123;28;20386;-93
2022/05/28 04:25:24;;;;;;;4.43;0.65;;;11.80;85.60;;;;;;2092532;28;20111;-93
2022/05/28 04:26:43;;;;;;;3.03;0.77;;;11.80;85.60;;;;;;2082705;28;20057;-94
2022/05/28 04:28:02;;;;;;;2.58;0.63;;;11.80;85.60;;;;;;2075916;28;20033;-93
2022/05/28 04:29:22;;;;;;;4.45;0.90;;;11.80;85.60;;;;;;2090321;28;20032;-94
2022/05/28 04:30:41;;;;;;;3.60;0.80;;;11.80;85.70;;;;;;2081937;28;20065;-93
2022/05/28 04:32:00;;;;;;;3.13;0.60;;;11.80;85.70;;;;;;2080307;28;20034;-93
2022/05/28 04:33:20;;;;;;;2.83;0.80;;;11.80;85.70;;;;;;2081897;28;20034;-92
2022/05/28 04:34:39;;;;;;;3.08;0.70;;;11.80;85.80;;;;;;2092046;28;20037;-93
2022/05/28 04:35:58;;;;;;;3.83;0.90;;;11.80;85.80;;;;;;2098826;28;20408;-93
2022/05/28 04:37:18;;;;;;;2.67;0.60;;;11.80;85.80;;;;;;2087291;28;20021;-93
2022/05/28 04:38:37;;;;;;;3.95;0.88;;;11.80;85.80;;;;;;2090261;28;20041;-92
2022/05/28 04:39:56;;;;;;;4.28;0.70;;;11.80;85.80;;;;;;2084256;28;20104;-94
2022/05/28 04:41:17;;;;;;;5.32;0.90;;;11.80;85.70;;;;;;2083046;28;20026;-93
2022/05/28 04:42:36;;;;;;;3.90;0.80;;;11.80;85.80;;;;;;2099349;28;20512;-92
2022/05/28 04:43:55;;;;;;;3.03;0.57;;;11.80;85.80;;;;;;2090689;28;20045;-92
2022/05/28 04:45:15;;;;;;;3.10;0.55;;;11.80;85.70;;;;;;2075187;28;20033;-93
2022/05/28 04:46:34;;;;;;;2.78;0.70;;;11.80;85.70;;;;;;2081212;28;20064;-92
2022/05/28 04:47:54;;;;;;;3.75;0.77;;;11.80;85.70;;;;;;2089809;28;20033;-93
2022/05/28 04:49:14;;;;;;;2.42;0.70;;;11.80;85.60;;;;;;2085340;28;20040;-92
2022/05/28 04:50:33;;;;;;;2.30;0.60;;;11.80;85.50;;;;;;2085774;28;20032;-94
2022/05/28 04:51:52;;;;;;;2.40;0.60;;;11.80;85.50;;;;;;2087287;28;20032;-93
2022/05/28 04:53:11;;;;;;;2.78;0.60;;;11.80;85.40;;;;;;2081802;28;20037;-93
2022/05/28 04:54:30;;;;;;;2.50;0.63;;;11.80;85.30;;;;;;2092074;28;20036;-92
2022/05/28 04:55:50;;;;;;;5.05;0.75;;;11.90;85.30;;;;;;2083229;28;20502;-93
2022/05/28 04:57:09;;;;;;;3.45;0.60;;;11.90;85.20;;;;;;2089635;28;20115;-92
2022/05/28 04:58:29;;;;;;;2.80;0.50;;;11.90;85.20;;;;;;2100140;28;20028;-95
2022/05/28 04:59:48;;;;;;;2.05;0.50;;;11.90;85.20;;;;;;2091081;28;20029;-93
2022/05/28 05:01:12;;;;;;;3.35;0.80;;;11.90;85.10;;;;;;2090177;28;20029;-93
2022/05/28 05:02:31;;;;;;;2.38;0.55;;;11.90;85.10;;;;;;2093369;28;20444;-93
2022/05/28 05:03:50;;;;;;;4.00;0.60;;;12.00;85.00;;;;;;2084027;28;20034;-93
2022/05/28 05:05:10;;;;;;;3.53;0.60;;;12.00;84.90;;;;;;2088307;28;20024;-93
2022/05/28 05:06:30;;;;;;;3.42;0.60;;;12.00;84.90;;;;;;2081375;28;20025;-93
2022/05/28 05:07:49;;;;;;;2.88;0.60;;;12.10;84.80;;;;;;2083926;28;20115;-93
2022/05/28 05:09:09;;;;;;;2.20;0.50;;;12.10;84.80;;;;;;2088396;28;20469;-92
2022/05/28 05:10:28;;;;;;;2.75;0.70;;;12.10;84.60;;;;;;2084738;28;20512;-93
2022/05/28 05:11:47;;;;;;;2.67;0.77;;;12.20;84.60;;;;;;2085571;28;20057;-93
2022/05/28 05:13:07;;;;;;;2.40;0.60;;;12.30;84.50;;;;;;2081577;28;20038;-92
2022/05/28 05:14:26;;;;;;;3.20;0.57;;;12.40;84.30;;;;;;2087025;28;20029;-93
2022/05/28 05:15:46;;;;;;;2.47;0.50;;;12.50;84.10;;;;;;2088762;28;20029;-94
2022/05/28 05:17:05;;;;;;;3.35;0.60;;;12.60;83.80;;;;;;2094996;28;20033;-93
2022/05/28 05:18:24;;;;;;;2.08;0.50;;;12.70;83.50;;;;;;2091855;28;20040;-92
2022/05/28 05:19:43;;;;;;;2.10;0.40;;;12.80;83.20;;;;;;2084175;28;20494;-91
2022/05/28 05:21:03;;;;;;;2.10;0.40;;;13.00;83.00;;;;;;2081020;28;20021;-93
2022/05/28 05:22:22;;;;;;;1.67;0.40;;;13.10;82.70;;;;;;2094594;28;20036;-93
2022/05/28 05:23:43;;;;;;;1.42;0.40;;;13.20;82.40;;;;;;2089329;28;20017;-93
2022/05/28 05:25:03;;;;;;;1.05;0.30;;;13.30;82.20;;;;;;2086090;28;20049;-93
2022/05/28 05:26:23;;;;;;;3.25;0.50;;;13.40;81.90;;;;;;2090590;28;20033;-94
2022/05/28 05:27:43;;;;;;;3.00;0.50;;;13.40;81.60;;;;;;2093130;28;20089;-93
2022/05/28 05:29:02;;;;;;;3.03;0.47;;;13.50;81.50;;;;;;2086933;28;20104;-93
2022/05/28 05:30:22;;;;;;;3.22;0.52;;;13.60;81.40;;;;;;2095516;28;20036;-94
2022/05/28 05:31:42;;;;;;;5.15;0.57;;;13.70;81.30;;;;;;2095945;28;20033;-93
2022/05/28 05:33:01;;;;;;;2.28;0.50;;;13.80;81.20;;;;;;2097839;28;20036;-93
2022/05/28 05:34:21;;;;;;;0.98;0.20;;;13.80;80.90;;;;;;2096853;28;20024;-93
2022/05/28 05:35:40;;;;;;;3.83;0.60;;;13.90;80.80;;;;;;2087802;28;20033;-93
2022/05/28 05:36:59;;;;;;;2.65;0.40;;;13.90;80.70;;;;;;2080186;28;20427;-92
2022/05/28 05:38:18;;;;;;;2.78;0.50;;;14.00;80.50;;;;;;2081656;28;20494;-93
2022/05/28 05:39:38;;;;;;;2.13;0.47;;;14.00;80.20;;;;;;2094100;28;20029;-93
2022/05/28 05:40:57;;;;;;;3.00;0.50;;;14.10;80.10;;;;;;2079621;28;20033;-93
2022/05/28 05:42:16;;;;;;;2.75;0.50;;;14.10;80.00;;;;;;2080601;28;20045;-93
2022/05/28 05:43:36;;;;;;;1.85;0.40;;;14.10;79.90;;;;;;2075891;28;20041;-92
2022/05/28 05:44:55;;;;;;;2.47;0.50;;;14.20;79.80;;;;;;2078609;28;20041;-93
2022/05/28 05:46:14;;;;;;;2.40;0.40;;;14.30;79.60;;;;;;2076694;28;20045;-93
2022/05/28 05:47:34;;;;;;;4.30;0.70;;;14.30;79.60;;;;;;2079173;28;20034;-94
2022/05/28 05:48:53;;;;;;;1.85;0.43;;;14.30;79.40;;;;;;2089316;28;20037;-94
2022/05/28 05:50:12;;;;;;;2.08;0.52;;;14.30;79.30;;;;;;2090850;28;20036;-94
2022/05/28 05:51:32;;;;;;;3.20;0.60;;;14.30;79.20;;;;;;2082899;28;20037;-93
2022/05/28 05:52:51;;;;;;;3.00;0.50;;;14.40;79.00;;;;;;2086319;28;20045;-93
2022/05/28 05:54:12;;;;;;;2.83;0.50;;;14.40;79.00;;;;;;2101051;28;20032;-94
2022/05/28 05:55:31;;;;;;;;;;;14.40;79.00;;;;;;2098094;28;20025;-93
2022/05/28 05:56:52;;;;;;;1.85;0.40;;;14.50;78.80;;;;;;2085773;28;19921;-92
2022/05/28 05:58:12;;;;;;;1.55;0.40;;;14.60;78.70;;;;;;2077273;28;20030;-93
2022/05/28 05:59:31;;;;;;;2.28;0.50;;;14.60;78.60;;;;;;2096305;28;20028;-94
2022/05/28 06:00:50;;;;;;;2.80;0.57;;;14.50;78.40;;;;;;2087554;28;20460;-93
2022/05/28 06:02:10;;;;;;;2.15;0.50;;;14.50;78.20;;;;;;2084394;28;20029;-94
2022/05/28 06:03:30;;;;;;;2.72;0.55;;;14.50;78.40;;;;;;2092703;28;20032;-93
2022/05/28 06:04:49;;;;;;;3.70;0.43;;;14.50;78.40;;;;;;2088129;28;20068;-93
2022/05/28 06:06:12;;;;;;;3.35;0.60;;;14.50;78.40;;;;;;2080621;28;20038;-93
2022/05/28 06:07:31;;;;;;;2.45;0.50;;;14.50;78.30;;;;;;2092452;28;20123;-93
2022/05/28 06:08:51;;;;;;;1.75;0.38;;;14.50;78.30;;;;;;2079708;28;20037;-92
2022/05/28 06:10:11;;;;;;;2.58;0.45;;;14.50;78.30;;;;;;2093017;28;20028;-94
2022/05/28 06:11:30;;;;;;;1.25;0.38;;;14.50;78.20;;;;;;2076887;28;20049;-93
2022/05/28 06:12:49;;;;;;;2.25;0.40;;;14.50;77.90;;;;;;2081442;28;20045;-94
2022/05/28 06:14:08;;;;;;;2.53;0.52;;;14.50;77.80;;;;;;2079958;28;20111;-93
2022/05/28 06:15:27;;;;;;;4.10;0.60;;;14.50;77.60;;;;;;2090220;28;20021;-94
2022/05/28 06:16:47;;;;;;;2.80;0.40;;;14.60;77.60;;;;;;2074206;28;20038;-93
2022/05/28 06:18:06;;;;;;;1.92;0.40;;;14.70;77.50;;;;;;2084669;28;20076;-93
2022/05/28 06:19:26;;;;;;;2.22;0.57;;;14.70;77.20;;;;;;2086333;28;20029;-93
2022/05/28 06:20:45;;;;;;;3.97;0.60;;;14.80;77.00;;;;;;2087704;28;20037;-94
2022/05/28 06:22:04;;;;;;;2.47;0.57;;;14.80;76.60;;;;;;2087176;28;20029;-94
2022/05/28 06:23:24;;;;;;;2.75;0.75;;;14.90;76.30;;;;;;2078172;28;20082;-94
2022/05/28 06:24:43;;;;;;;2.50;0.60;;;15.00;76.10;;;;;;2090071;28;20025;-94
2022/05/28 06:26:04;;;;;;;3.83;0.60;;;15.00;75.90;;;;;;2080543;28;20033;-92
2022/05/28 06:27:23;;;;;;;;;;;15.10;75.60;;;;;;2089439;28;20524;-93
2022/05/28 06:28:43;;;;;;;2.60;0.80;;;15.10;75.40;;;;;;2093521;28;19912;-94
2022/05/28 06:30:02;;;;;;;1.55;0.40;;;15.10;75.30;;;;;;2095601;28;20024;-93
2022/05/28 06:31:21;;;;;;;2.75;0.63;;;15.20;75.00;;;;;;2095702;28;20036;-93
2022/05/28 06:32:41;;;;;;;3.05;0.65;;;15.20;74.90;;;;;;2084941;28;20085;-93
2022/05/28 06:34:00;;;;;;;3.13;0.60;;;15.30;74.80;;;;;;2084255;28;20037;-93
2022/05/28 06:35:19;;;;;;;2.38;0.40;;;15.40;74.40;;;;;;2087151;28;20033;-94
2022/05/28 06:36:39;;;;;;;1.95;0.40;;;15.50;74.30;;;;;;2083445;28;20401;-93
2022/05/28 06:37:58;;;;;;;3.92;0.55;;;15.60;74.00;;;;;;2085742;28;20029;-94
2022/05/28 06:39:18;;;;;;;3.05;0.50;;;15.60;73.80;;;;;;2083475;28;20025;-93
2022/05/28 06:40:37;;;;;;;3.38;0.70;;;15.60;73.10;;;;;;2084722;28;20037;-93
2022/05/28 06:41:56;;;;;;;2.97;0.50;;;15.50;73.70;;;;;;2079278;28;20029;-93
2022/05/28 06:43:16;;;;;;;3.47;0.60;;;15.50;73.20;;;;;;2086824;28;20033;-93
2022/05/28 06:44:35;;;;;;;3.67;0.60;;;15.50;73.20;;;;;;2075337;28;20034;-93
2022/05/28 06:45:55;;;;;;;5.20;0.60;;;15.50;73.10;;;;;;2086771;28;20040;-94
2022/05/28 06:47:14;;;;;;;3.20;0.82;;;15.50;73.00;;;;;;2086868;28;20044;-93
2022/05/28 06:48:35;;;;;;;3.83;0.68;;;15.50;72.70;;;;;;2085359;28;20037;-93
2022/05/28 06:51:34;;;;;;;3.30;0.52;;;15.40;72.80;;;;;;2082367;28;20057;-94
2022/05/28 06:52:53;;;;;;;3.58;0.65;;;15.40;72.60;;;;;;2088913;28;20076;-93
2022/05/28 06:54:12;;;;;;;2.42;0.68;;;15.40;72.60;;;;;;2084085;28;20041;-95
2022/05/28 06:55:31;;;;;;;2.63;0.60;;;15.20;72.60;;;;;;2082441;28;20037;-92
2022/05/28 06:56:51;;;;;;;2.22;0.50;;;15.10;72.60;;;;;;2085908;28;20064;-93
2022/05/28 06:58:10;;;;;;;3.50;0.70;;;15.00;72.80;;;;;;2074870;28;20410;-93
2022/05/28 06:59:29;;;;;;;2.38;0.50;;;15.00;73.10;;;;;;2086218;28;20571;-94
2022/05/28 07:00:49;;;;;;;2.30;0.50;;;15.00;73.10;;;;;;2098606;28;20149;-93
2022/05/28 07:02:08;;;;;;;6.20;0.55;;;15.00;73.10;;;;;;2090460;28;20033;-92
2022/05/28 07:03:30;;;;;;;2.20;0.60;;;15.10;72.50;;;;;;2084024;28;20040;-93
2022/05/28 07:04:49;;;;;;;2.15;0.52;;;15.20;72.30;;;;;;2076855;28;20065;-92
2022/05/28 07:06:09;;;;;;;3.00;0.50;;;15.30;72.10;;;;;;2089666;28;20502;-93